Time,TemperatureF,DewpointF,PressureIn,WindDirection,WindDirectionDegrees,WindSpeedMPH,WindSpeedGustMPH,Humidity,HourlyPrecipIn,Conditions,Clouds,dailyrainin,SoftwareType,DateUTC
2013-08-14 00:05:00,61.4,59.0,29.95,ESE,103,0.0,5.0,92,0.00,,,0.00,weatherlink.com 1.10,2013-08-14 07:05:00,
2013-08-14 00:20:00,61.0,59.0,29.95,ESE,103,0.0,0.0,92,0.00,,,0.00,weatherlink.com 1.10,2013-08-14 07:20:00,
2013-08-14 00:35:00,60.7,59.0,29.95,ESE,103,0.0,0.0,93,0.00,,,0.00,weatherlink.com 1.10,2013-08-14 07:35:00,
2013-08-14 00:51:00,60.3,58.0,29.96,ESE,103,0.0,0.0,93,0.00,,,0.00,weatherlink.com 1.10,2013-08-14 07:51:00,
2013-08-14 01:06:00,60.0,58.0,29.96,ESE,103,0.0,0.0,94,0.00,,,0.00,weatherlink.com 1.10,2013-08-14 08:06:00,
2013-08-14 01:21:00,59.6,58.0,29.96,ESE,103,0.0,0.0,94,0.00,,,0.00,weatherlink.com 1.10,2013-08-14 08:21:00,
2013-08-14 01:36:00,59.3,58.0,29.96,ESE,103,0.0,0.0,95,0.00,,,0.00,weatherlink.com 1.10,2013-08-14 08:36:00,
2013-08-14 01:51:00,59.0,58.0,29.96,ESE,103,0.0,0.0,95,0.00,,,0.00,weatherlink.com 1.10,2013-08-14 08:51:00,
2013-08-14 02:06:00,58.7,57.0,29.96,ESE,103,0.0,0.0,95,0.00,,,0.00,weatherlink.com 1.10,2013-08-14 09:06:00,
2013-08-14 02:21:00,58.4,57.0,29.95,ESE,103,0.0,0.0,95,0.00,,,0.00,weatherlink.com 1.10,2013-08-14 09:21:00,
2013-08-14 02:36:00,58.3,57.0,29.95,ESE,103,0.0,0.0,96,0.00,,,0.00,weatherlink.com 1.10,2013-08-14 09:36:00,
2013-08-14 02:51:00,58.1,57.0,29.95,ESE,103,0.0,0.0,96,0.00,,,0.00,weatherlink.com 1.10,2013-08-14 09:51:00,
2013-08-14 03:06:00,58.1,57.0,29.96,ESE,103,0.0,0.0,96,0.00,,,0.00,weatherlink.com 1.10,2013-08-14 10:06:00,
2013-08-14 03:21:00,57.9,57.0,29.97,ESE,103,0.0,0.0,96,0.00,,,0.00,weatherlink.com 1.10,2013-08-14 10:21:00,
2013-08-14 03:36:00,57.7,57.0,29.97,ESE,103,0.0,0.0,96,0.00,,,0.00,weatherlink.com 1.10,2013-08-14 10:36:00,
2013-08-14 03:51:00,57.5,56.0,29.97,ESE,103,0.0,1.0,96,0.00,,,0.00,weatherlink.com 1.10,2013-08-14 10:51:00,
2013-08-14 04:06:00,57.3,56.0,29.97,ESE,103,0.0,0.0,96,0.00,,,0.00,weatherlink.com 1.10,2013-08-14 11:06:00,
2013-08-14 04:21:00,57.0,56.0,29.96,ESE,103,0.0,0.0,96,0.00,,,0.00,weatherlink.com 1.10,2013-08-14 11:21:00,
2013-08-14 04:36:00,56.8,56.0,29.96,ESE,103,0.0,1.0,97,0.00,,,0.00,weatherlink.com 1.10,2013-08-14 11:36:00,
2013-08-14 04:51:00,56.8,56.0,29.97,ESE,103,0.0,0.0,97,0.00,,,0.00,weatherlink.com 1.10,2013-08-14 11:51:00,
2013-08-14 05:06:00,56.6,56.0,29.96,ESE,103,0.0,0.0,96,0.00,,,0.00,weatherlink.com 1.10,2013-08-14 12:06:00,
2013-08-14 05:21:00,56.8,56.0,29.97,ESE,103,0.0,2.0,97,0.00,,,0.00,weatherlink.com 1.10,2013-08-14 12:21:00,
2013-08-14 05:36:00,57.2,56.0,29.97,ESE,103,0.0,0.0,96,0.00,,,0.00,weatherlink.com 1.10,2013-08-14 12:36:00,
2013-08-14 05:51:00,56.9,56.0,29.97,ESE,103,0.0,1.0,96,0.00,,,0.00,weatherlink.com 1.10,2013-08-14 12:51:00,
2013-08-14 06:06:00,56.9,56.0,29.97,ESE,103,0.0,0.0,96,0.00,,,0.00,weatherlink.com 1.10,2013-08-14 13:06:00,
2013-08-14 06:21:00,56.7,56.0,29.97,ESE,103,0.0,0.0,96,0.00,,,0.00,weatherlink.com 1.10,2013-08-14 13:21:00,
2013-08-14 06:36:00,56.7,56.0,29.98,East,97,0.0,2.0,96,0.00,,,0.00,weatherlink.com 1.10,2013-08-14 13:36:00,
2013-08-14 06:51:00,56.8,56.0,29.98,East,97,0.0,1.0,96,0.00,,,0.00,weatherlink.com 1.10,2013-08-14 13:51:00,
2013-08-14 07:06:00,56.8,55.0,29.98,East,97,0.0,2.0,95,0.00,,,0.00,weatherlink.com 1.10,2013-08-14 14:06:00,
2013-08-14 07:21:00,56.8,56.0,29.97,East,95,1.0,3.0,96,0.00,,,0.00,weatherlink.com 1.10,2013-08-14 14:21:00,
2013-08-14 07:36:00,58.2,57.0,29.97,ESE,122,0.0,2.0,94,0.00,,,0.00,weatherlink.com 1.10,2013-08-14 14:36:00,
2013-08-14 07:51:00,59.4,57.0,29.97,East,81,1.0,4.0,92,0.00,,,0.00,weatherlink.com 1.10,2013-08-14 14:51:00,
2013-08-14 08:06:00,60.7,57.0,29.97,ESE,118,3.0,5.0,88,0.00,,,0.00,weatherlink.com 1.10,2013-08-14 15:06:00,
2013-08-14 08:21:00,61.8,57.0,29.97,ESE,103,2.0,5.0,85,0.00,,,0.00,weatherlink.com 1.10,2013-08-14 15:21:00,
2013-08-14 08:36:00,62.0,57.0,29.97,SE,136,4.0,7.0,84,0.00,,,0.00,weatherlink.com 1.10,2013-08-14 15:36:00,
2013-08-14 08:51:00,62.7,58.0,29.96,East,86,1.0,7.0,84,0.00,,,0.00,weatherlink.com 1.10,2013-08-14 15:51:00,
2013-08-14 09:06:00,63.8,58.0,29.97,ENE,72,1.0,4.0,82,0.00,,,0.00,weatherlink.com 1.10,2013-08-14 16:06:00,
2013-08-14 09:36:00,66.0,59.0,29.96,ENE,67,2.0,5.0,77,0.00,,,0.00,weatherlink.com 1.10,2013-08-14 16:36:00,
2013-08-14 09:52:00,66.3,58.0,29.95,NE,55,0.0,4.0,75,0.00,,,0.00,weatherlink.com 1.10,2013-08-14 16:52:00,
2013-08-14 10:06:00,66.3,59.0,29.95,ENE,59,1.0,3.0,76,0.00,,,0.00,weatherlink.com 1.10,2013-08-14 17:06:00,
2013-08-14 10:21:00,66.5,59.0,29.95,ENE,59,1.0,3.0,77,0.00,,,0.00,weatherlink.com 1.10,2013-08-14 17:21:00,
2013-08-14 10:36:00,66.7,59.0,29.95,East,80,2.0,6.0,76,0.00,,,0.00,weatherlink.com 1.10,2013-08-14 17:36:00,
2013-08-14 11:06:00,67.7,60.0,29.95,ENE,69,1.0,2.0,76,0.00,,,0.00,weatherlink.com 1.10,2013-08-14 18:06:00,
2013-08-14 11:37:00,68.9,60.0,29.94,ENE,69,0.0,2.0,74,0.00,,,0.00,weatherlink.com 1.10,2013-08-14 18:37:00,
2013-08-14 11:52:00,69.0,61.0,29.94,ENE,69,0.0,2.0,76,0.00,,,0.00,weatherlink.com 1.10,2013-08-14 18:52:00,
2013-08-14 12:07:00,69.5,61.0,29.93,ENE,69,2.0,3.0,74,0.00,,,0.00,weatherlink.com 1.10,2013-08-14 19:07:00,
2013-08-14 12:22:00,70.9,61.0,29.93,ENE,69,0.0,1.0,70,0.00,,,0.00,weatherlink.com 1.10,2013-08-14 19:22:00,
2013-08-14 12:37:00,72.5,64.0,29.92,ENE,69,0.0,0.0,74,0.00,,,0.00,weatherlink.com 1.10,2013-08-14 19:37:00,
2013-08-14 13:07:00,73.9,62.0,29.92,North,5,1.0,3.0,67,0.00,,,0.00,weatherlink.com 1.10,2013-08-14 20:07:00,
2013-08-14 13:22:00,73.7,65.0,29.92,North,5,0.0,1.0,75,0.00,,,0.00,weatherlink.com 1.10,2013-08-14 20:22:00,
2013-08-14 13:52:00,73.9,63.0,29.93,ESE,106,0.0,3.0,69,0.00,,,0.00,weatherlink.com 1.10,2013-08-14 20:52:00,
2013-08-14 14:07:00,75.6,65.0,29.92,ESE,105,0.0,1.0,69,0.00,,,0.00,weatherlink.com 1.10,2013-08-14 21:07:00,
2013-08-14 14:22:00,76.3,64.0,29.91,ESE,107,0.0,3.0,66,0.00,,,0.00,weatherlink.com 1.10,2013-08-14 21:22:00,
2013-08-14 14:37:00,76.8,63.0,29.91,ESE,107,0.0,1.0,62,0.00,,,0.00,weatherlink.com 1.10,2013-08-14 21:37:00,
2013-08-14 14:52:00,77.6,64.0,29.91,ESE,108,0.0,2.0,63,0.00,,,0.00,weatherlink.com 1.10,2013-08-14 21:52:00,
2013-08-14 15:07:00,78.8,63.0,29.90,ESE,108,0.0,2.0,58,0.00,,,0.00,weatherlink.com 1.10,2013-08-14 22:07:00,
2013-08-14 15:22:00,79.4,63.0,29.90,SSE,163,2.0,3.0,58,0.00,,,0.00,weatherlink.com 1.10,2013-08-14 22:22:00,
2013-08-14 15:37:00,79.0,62.0,29.90,South,172,0.0,4.0,57,0.00,,,0.00,weatherlink.com 1.10,2013-08-14 22:37:00,
2013-08-14 15:52:00,78.7,64.0,29.91,South,170,0.0,2.0,60,0.00,,,0.00,weatherlink.com 1.10,2013-08-14 22:52:00,
2013-08-14 16:07:00,77.9,67.0,29.91,South,187,0.0,2.0,68,0.00,,,0.00,weatherlink.com 1.10,2013-08-14 23:07:00,
2013-08-14 16:22:00,77.4,66.0,29.91,West,278,0.0,5.0,67,0.00,,,0.00,weatherlink.com 1.10,2013-08-14 23:22:00,
2013-08-14 16:37:00,76.6,66.0,29.91,West,278,0.0,2.0,70,0.00,,,0.00,weatherlink.com 1.10,2013-08-14 23:37:00,
2013-08-14 17:07:00,75.3,64.0,29.91,West,278,0.0,2.0,69,0.00,,,0.00,weatherlink.com 1.10,2013-08-15 00:07:00,
2013-08-14 17:22:00,74.6,65.0,29.91,SSE,165,0.0,1.0,73,0.00,,,0.00,weatherlink.com 1.10,2013-08-15 00:22:00,
2013-08-14 17:37:00,73.7,62.0,29.91,ESE,119,0.0,1.0,68,0.00,,,0.00,weatherlink.com 1.10,2013-08-15 00:37:00,
2013-08-14 17:52:00,72.6,63.0,29.91,ESE,119,0.0,0.0,72,0.00,,,0.00,weatherlink.com 1.10,2013-08-15 00:52:00,
2013-08-14 18:07:00,71.9,63.0,29.91,SSE,156,3.0,3.0,74,0.00,,,0.00,weatherlink.com 1.10,2013-08-15 01:07:00,
2013-08-14 18:22:00,71.9,63.0,29.92,SSE,155,1.0,2.0,74,0.00,,,0.00,weatherlink.com 1.10,2013-08-15 01:22:00,
2013-08-14 18:37:00,71.5,63.0,29.93,SSE,155,0.0,2.0,75,0.00,,,0.00,weatherlink.com 1.10,2013-08-15 01:37:00,
2013-08-14 18:52:00,70.7,62.0,29.94,SSE,164,1.0,3.0,75,0.00,,,0.00,weatherlink.com 1.10,2013-08-15 01:52:00,
2013-08-14 19:07:00,70.3,61.0,29.94,South,171,0.0,2.0,73,0.00,,,0.00,weatherlink.com 1.10,2013-08-15 02:07:00,
2013-08-14 19:22:00,70.3,61.0,29.94,NNE,18,0.0,3.0,72,0.00,,,0.00,weatherlink.com 1.10,2013-08-15 02:22:00,
2013-08-14 19:37:00,69.7,61.0,29.95,SW,219,0.0,3.0,73,0.00,,,0.00,weatherlink.com 1.10,2013-08-15 02:37:00,
2013-08-14 19:52:00,69.1,60.0,29.95,SW,219,0.0,2.0,73,0.00,,,0.00,weatherlink.com 1.10,2013-08-15 02:52:00,
2013-08-14 20:07:00,68.6,60.0,29.95,SW,219,0.0,0.0,73,0.00,,,0.00,weatherlink.com 1.10,2013-08-15 03:07:00,
2013-08-14 20:22:00,68.2,60.0,29.95,SW,219,0.0,0.0,75,0.00,,,0.00,weatherlink.com 1.10,2013-08-15 03:22:00,
2013-08-14 20:37:00,67.4,60.0,29.95,SW,219,0.0,0.0,77,0.00,,,0.00,weatherlink.com 1.10,2013-08-15 03:37:00,
2013-08-14 20:52:00,66.9,60.0,29.96,SW,219,0.0,0.0,79,0.00,,,0.00,weatherlink.com 1.10,2013-08-15 03:52:00,
2013-08-14 21:07:00,66.3,60.0,29.96,SW,219,0.0,0.0,81,0.00,,,0.00,weatherlink.com 1.10,2013-08-15 04:07:00,
2013-08-14 21:22:00,66.0,61.0,29.98,SW,219,0.0,0.0,83,0.00,,,0.00,weatherlink.com 1.10,2013-08-15 04:22:00,
2013-08-14 21:37:00,65.7,61.0,29.98,ESE,103,0.0,3.0,85,0.00,,,0.00,weatherlink.com 1.10,2013-08-15 04:37:00,
2013-08-14 21:52:00,65.3,61.0,29.98,ESE,103,0.0,1.0,85,0.00,,,0.00,weatherlink.com 1.10,2013-08-15 04:52:00,
2013-08-14 22:07:00,65.2,60.0,29.98,ESE,102,0.0,0.0,84,0.00,,,0.00,weatherlink.com 1.10,2013-08-15 05:07:00,
2013-08-14 22:22:00,65.2,61.0,29.98,ESE,102,0.0,0.0,86,0.00,,,0.00,weatherlink.com 1.10,2013-08-15 05:22:00,
2013-08-14 22:37:00,64.8,61.0,29.97,ESE,102,0.0,0.0,88,0.00,,,0.00,weatherlink.com 1.10,2013-08-15 05:37:00,
2013-08-14 22:52:00,64.3,61.0,29.96,ESE,102,0.0,0.0,89,0.00,,,0.00,weatherlink.com 1.10,2013-08-15 05:52:00,
2013-08-14 23:08:00,64.0,61.0,29.95,ESE,102,0.0,2.0,90,0.00,,,0.00,weatherlink.com 1.10,2013-08-15 06:08:00,
2013-08-14 23:23:00,63.9,61.0,29.95,ESE,102,0.0,1.0,90,0.00,,,0.00,weatherlink.com 1.10,2013-08-15 06:23:00,
2013-08-14 23:38:00,63.7,61.0,29.96,ESE,102,0.0,2.0,90,0.00,,,0.00,weatherlink.com 1.10,2013-08-15 06:38:00,
2013-08-14 23:53:00,63.8,61.0,29.96,ESE,102,0.0,2.0,90,0.00,,,0.00,weatherlink.com 1.10,2013-08-15 06:53:00,